Time;durP1;ratioP1;P1;durP2;ratioP2;P2;SDS_P1;SDS_P2;PMS_P1;PMS_P2;Temp;Humidity;BMP_temperature;BMP_pressure;BME280_temperature;BME280_humidity;BME280_pressure;Samples;Min_cycle;Max_cycle;Signal;HPM_P1;HPM_P2
2021/10/01 00:01:54;;;;;;;1.20;0.90;;;7.40;98.00;;;;;;5113734;28;20496;-70
2021/10/01 00:04:21;;;;;;;1.20;1.00;;;7.40;98.00;;;;;;5113629;28;20473;-70
2021/10/01 00:06:48;;;;;;;1.20;1.00;;;7.50;98.00;;;;;;5113142;28;20541;-69
2021/10/01 00:09:15;;;;;;;1.20;1.00;;;7.40;98.00;;;;;;5113113;28;20581;-70
2021/10/01 00:11:47;;;;;;;1.20;1.00;;;7.50;98.00;;;;;;5113572;28;20504;-70
2021/10/01 00:14:15;;;;;;;2.13;1.20;;;7.40;98.00;;;;;;5113372;28;20504;-70
2021/10/01 00:16:42;;;;;;;1.20;1.13;;;7.40;98.00;;;;;;5113398;28;20484;-70
2021/10/01 00:19:10;;;;;;;1.20;0.90;;;7.30;98.00;;;;;;5113242;28;20486;-70
2021/10/01 00:21:45;;;;;;;1.20;1.00;;;7.40;98.00;;;;;;5113370;28;20998;-69
2021/10/01 00:24:12;;;;;;;1.20;1.00;;;7.50;98.00;;;;;;5113324;28;20472;-71
2021/10/01 00:26:40;;;;;;;1.20;1.00;;;7.50;98.00;;;;;;5113426;28;20460;-70
2021/10/01 00:29:09;;;;;;;1.40;1.20;;;7.50;98.00;;;;;;5112979;28;20492;-70
2021/10/01 00:31:50;;;;;;;1.20;1.00;;;7.50;98.00;;;;;;5113177;28;20457;-70
2021/10/01 00:34:19;;;;;;;1.30;1.00;;;7.40;98.00;;;;;;5113395;28;20491;-70
2021/10/01 00:36:46;;;;;;;1.20;1.00;;;7.30;98.00;;;;;;5113311;28;20456;-70
2021/10/01 00:39:13;;;;;;;1.20;1.00;;;7.30;98.00;;;;;;5113142;28;20487;-70
2021/10/01 00:41:40;;;;;;;1.20;1.10;;;7.20;98.00;;;;;;5111757;28;20460;-70
2021/10/01 00:44:08;;;;;;;1.80;1.20;;;7.10;98.00;;;;;;5112939;28;20865;-70
2021/10/01 00:46:35;;;;;;;1.20;1.00;;;7.10;98.00;;;;;;5112367;28;20524;-69
2021/10/01 00:49:05;;;;;;;1.20;1.00;;;7.10;98.00;;;;;;5112572;28;20491;-71
2021/10/01 00:51:35;;;;;;;1.43;1.10;;;7.10;98.00;;;;;;5112736;28;20489;-70
2021/10/01 00:54:04;;;;;;;1.20;1.10;;;7.10;98.00;;;;;;5112434;28;20482;-69
2021/10/01 00:56:31;;;;;;;1.43;1.40;;;7.10;98.00;;;;;;5112539;27;20448;-70
2021/10/01 00:58:59;;;;;;;1.20;1.00;;;7.10;98.00;;;;;;5112567;28;20512;-70
2021/10/01 01:01:26;;;;;;;1.53;1.13;;;7.10;98.00;;;;;;5112375;28;20520;-69
2021/10/01 01:03:56;;;;;;;1.20;1.00;;;7.20;98.00;;;;;;5112300;28;20460;-70
2021/10/01 01:06:33;;;;;;;1.20;1.10;;;7.30;98.00;;;;;;5112510;28;20511;-71
2021/10/01 01:09:10;;;;;;;1.20;1.00;;;7.30;98.00;;;;;;5111950;28;20559;-70
2021/10/01 01:11:49;;;;;;;2.43;1.20;;;7.30;98.00;;;;;;5112310;28;21025;-70
2021/10/01 01:14:22;;;;;;;1.20;1.00;;;7.30;98.00;;;;;;5111169;28;20464;-69
2021/10/01 01:16:50;;;;;;;1.57;1.20;;;7.30;98.00;;;;;;5111272;28;20485;-70
2021/10/01 01:19:33;;;;;;;1.93;1.30;;;7.30;98.00;;;;;;5110239;28;20845;-69
2021/10/01 01:22:12;;;;;;;1.20;0.90;;;7.20;98.00;;;;;;5112107;28;20535;-69
2021/10/01 01:25:04;;;;;;;1.40;1.20;;;7.10;98.00;;;;;;5112328;27;20514;-69
2021/10/01 01:27:46;;;;;;;1.20;1.00;;;7.00;98.00;;;;;;5112249;28;20524;-69
2021/10/01 01:30:17;;;;;;;1.20;0.90;;;6.90;98.00;;;;;;5111014;28;20514;-71
2021/10/01 01:32:48;;;;;;;1.20;1.00;;;6.90;98.00;;;;;;5112238;28;20494;-70
2021/10/01 01:35:20;;;;;;;1.50;1.10;;;6.80;98.00;;;;;;5111954;28;20481;-70
2021/10/01 01:37:52;;;;;;;1.20;1.00;;;7.00;98.00;;;;;;5112278;28;20807;-70
2021/10/01 01:40:23;;;;;;;1.20;0.90;;;7.10;98.00;;;;;;5111024;28;20517;-70
2021/10/01 01:42:52;;;;;;;1.20;1.00;;;7.20;98.00;;;;;;5112098;28;20891;-70
2021/10/01 01:45:21;;;;;;;1.20;1.00;;;7.20;98.00;;;;;;5112141;28;20481;-70
2021/10/01 01:47:51;;;;;;;1.20;1.00;;;7.20;98.00;;;;;;5112046;28;20455;-70
2021/10/01 01:50:19;;;;;;;1.20;1.00;;;7.30;98.00;;;;;;5111874;28;20486;-70
2021/10/01 01:52:47;;;;;;;1.20;1.00;;;7.30;98.00;;;;;;5110425;28;20524;-69
2021/10/01 01:55:15;;;;;;;1.20;0.93;;;7.20;98.00;;;;;;5111614;28;20955;-70
2021/10/01 01:57:50;;;;;;;1.50;1.30;;;7.10;98.00;;;;;;5111832;28;20497;-70
2021/10/01 02:00:17;;;;;;;1.30;1.17;;;7.10;98.00;;;;;;5112300;28;20480;-70
2021/10/01 02:02:47;;;;;;;1.20;1.10;;;6.90;98.00;;;;;;5112259;28;20457;-70
2021/10/01 02:05:16;;;;;;;2.30;1.10;;;6.90;98.00;;;;;;5112056;28;20451;-70
2021/10/01 02:07:44;;;;;;;1.20;1.00;;;6.90;98.00;;;;;;5111724;28;20455;-70
2021/10/01 02:10:13;;;;;;;1.20;0.90;;;6.90;98.00;;;;;;5111521;28;20491;-70
2021/10/01 02:12:43;;;;;;;1.20;1.10;;;6.80;98.00;;;;;;5111829;28;20871;-69
2021/10/01 02:15:12;;;;;;;1.20;1.00;;;6.80;98.00;;;;;;5111373;28;20458;-70
2021/10/01 02:17:44;;;;;;;1.20;1.00;;;6.80;98.00;;;;;;5111611;28;20451;-69
2021/10/01 02:20:12;;;;;;;1.20;0.97;;;6.80;98.00;;;;;;5110477;28;20451;-70
2021/10/01 02:22:40;;;;;;;1.20;0.90;;;6.90;98.00;;;;;;5111755;28;20518;-70
2021/10/01 02:27:54;;;;;;;2.03;1.30;;;6.80;98.00;;;;;;5111301;28;20509;-70
2021/10/01 02:30:23;;;;;;;1.30;1.10;;;6.70;98.00;;;;;;5113817;28;21049;-69
2021/10/01 02:32:54;;;;;;;1.20;0.90;;;6.60;98.00;;;;;;5115208;28;20453;-70
2021/10/01 02:35:22;;;;;;;1.20;1.00;;;6.70;98.00;;;;;;5114248;28;20499;-70
2021/10/01 02:37:50;;;;;;;1.20;1.00;;;6.60;98.00;;;;;;5115180;28;20495;-70
2021/10/01 02:40:17;;;;;;;1.20;1.00;;;6.70;98.00;;;;;;5115120;28;20814;-70
2021/10/01 02:42:46;;;;;;;1.20;1.00;;;6.80;98.00;;;;;;5115180;28;20465;-70
2021/10/01 02:45:13;;;;;;;1.20;1.00;;;6.80;98.00;;;;;;5113855;28;20451;-70
2021/10/01 02:47:41;;;;;;;1.20;1.00;;;6.80;98.00;;;;;;5115245;28;20459;-70
2021/10/01 02:50:13;;;;;;;1.20;1.00;;;6.80;98.00;;;;;;5114884;28;20526;-70
2021/10/01 02:52:48;;;;;;;1.20;1.00;;;6.80;98.00;;;;;;5115087;28;20451;-69
2021/10/01 02:55:19;;;;;;;1.20;1.00;;;6.80;98.00;;;;;;5114941;28;20449;-70
2021/10/01 02:57:53;;;;;;;1.20;0.90;;;6.80;98.00;;;;;;5115017;28;20488;-70
2021/10/01 03:00:21;;;;;;;1.20;1.00;;;6.70;98.00;;;;;;5114881;27;20451;-71
2021/10/01 03:02:50;;;;;;;1.20;0.93;;;6.70;98.00;;;;;;5114905;28;20504;-70
2021/10/01 03:05:19;;;;;;;1.30;1.13;;;6.60;98.00;;;;;;5114983;28;20808;-70
2021/10/01 03:07:48;;;;;;;1.20;1.00;;;6.70;98.00;;;;;;5113544;28;20877;-70
2021/10/01 03:10:17;;;;;;;3.00;1.10;;;6.70;98.00;;;;;;5114583;28;20812;-70
2021/10/01 03:12:45;;;;;;;1.20;0.90;;;6.70;98.00;;;;;;5114944;28;20527;-70
2021/10/01 03:15:14;;;;;;;1.30;1.30;;;6.70;98.00;;;;;;5114813;28;20465;-70
2021/10/01 03:17:43;;;;;;;1.20;1.00;;;6.70;98.00;;;;;;5114774;28;20911;-70
2021/10/01 03:20:11;;;;;;;1.20;1.00;;;6.60;98.00;;;;;;5114771;28;20451;-70
2021/10/01 03:22:40;;;;;;;1.30;1.13;;;6.60;98.00;;;;;;5114660;28;20465;-70
2021/10/01 03:25:09;;;;;;;1.20;1.00;;;6.70;98.00;;;;;;5114452;28;20518;-70
2021/10/01 03:27:38;;;;;;;1.20;1.00;;;6.60;98.00;;;;;;5114322;28;20460;-69
2021/10/01 03:30:09;;;;;;;1.20;1.00;;;6.40;98.00;;;;;;5114051;28;20521;-69
2021/10/01 03:32:37;;;;;;;1.20;1.00;;;6.60;98.00;;;;;;5113229;28;20808;-70
2021/10/01 03:35:06;;;;;;;1.47;1.43;;;6.60;98.00;;;;;;5114079;28;20503;-70
2021/10/01 03:37:33;;;;;;;2.60;1.13;;;6.60;98.00;;;;;;5114007;28;20483;-70
2021/10/01 03:40:02;;;;;;;1.33;1.07;;;6.50;98.00;;;;;;5114003;28;20849;-69
2021/10/01 03:42:29;;;;;;;1.20;1.10;;;6.40;98.00;;;;;;5112092;28;20456;-70
2021/10/01 03:44:58;;;;;;;1.20;1.00;;;6.40;98.00;;;;;;5113906;28;20886;-70
2021/10/01 03:47:25;;;;;;;1.90;1.17;;;6.30;98.00;;;;;;5113904;28;20972;-70
2021/10/01 03:49:52;;;;;;;1.20;1.00;;;6.30;98.00;;;;;;5112161;28;20901;-70
2021/10/01 03:52:20;;;;;;;1.20;0.90;;;6.40;98.00;;;;;;5113745;28;20460;-70
2021/10/01 03:54:49;;;;;;;1.20;1.00;;;6.40;98.00;;;;;;5113355;28;20519;-70
2021/10/01 03:57:16;;;;;;;1.20;1.07;;;6.50;98.00;;;;;;5113763;28;20462;-70
2021/10/01 03:59:43;;;;;;;1.20;1.00;;;6.40;98.00;;;;;;5112540;28;20947;-70
2021/10/01 04:02:11;;;;;;;1.20;0.90;;;6.40;98.00;;;;;;5113772;28;20979;-69
2021/10/01 04:04:38;;;;;;;1.30;1.10;;;6.40;98.00;;;;;;5113648;28;20484;-71
2021/10/01 04:07:06;;;;;;;2.90;1.10;;;6.40;98.00;;;;;;5113430;28;20484;-70
2021/10/01 04:09:33;;;;;;;1.20;1.00;;;6.30;98.00;;;;;;5113213;28;20479;-70
2021/10/01 04:12:00;;;;;;;1.20;0.90;;;6.20;98.00;;;;;;5112399;28;20480;-70
2021/10/01 04:14:28;;;;;;;1.20;0.90;;;6.10;98.00;;;;;;5113415;28;20580;-70
2021/10/01 04:16:55;;;;;;;1.63;1.10;;;6.00;98.00;;;;;;5113020;28;20515;-69
2021/10/01 04:19:23;;;;;;;1.20;1.00;;;6.10;98.00;;;;;;5113280;28;20512;-70
2021/10/01 04:21:50;;;;;;;1.20;1.00;;;6.20;98.00;;;;;;5113446;28;20516;-69
2021/10/01 04:24:17;;;;;;;1.20;1.00;;;6.10;98.00;;;;;;5113336;28;20454;-69
2021/10/01 04:26:44;;;;;;;1.20;0.90;;;6.20;98.00;;;;;;5113278;28;20454;-70
2021/10/01 04:29:11;;;;;;;1.20;1.00;;;6.30;98.00;;;;;;5112874;28;20447;-70
2021/10/01 04:31:38;;;;;;;1.20;1.00;;;6.20;98.00;;;;;;5113269;28;20495;-71
2021/10/01 04:34:07;;;;;;;1.70;1.20;;;6.20;98.00;;;;;;5113123;28;20454;-71
2021/10/01 04:36:36;;;;;;;1.40;1.20;;;6.20;98.00;;;;;;5113178;28;20515;-69
2021/10/01 04:39:04;;;;;;;1.20;1.00;;;6.10;98.00;;;;;;5112954;28;20451;-70
2021/10/01 04:41:31;;;;;;;1.20;1.00;;;6.30;98.00;;;;;;5113382;28;20512;-70
2021/10/01 04:43:58;;;;;;;1.20;0.90;;;6.30;98.00;;;;;;5113058;28;20459;-70
2021/10/01 04:46:25;;;;;;;1.20;1.00;;;6.20;98.00;;;;;;5112937;28;20491;-70
2021/10/01 04:48:52;;;;;;;1.40;1.10;;;6.20;98.00;;;;;;5112995;28;20461;-70
2021/10/01 04:51:22;;;;;;;1.20;1.00;;;6.10;98.00;;;;;;5112605;28;20572;-70
2021/10/01 04:53:50;;;;;;;1.20;1.00;;;6.00;98.00;;;;;;5112544;28;20556;-70
2021/10/01 04:56:17;;;;;;;1.20;1.00;;;6.20;98.00;;;;;;5112734;28;20516;-70
2021/10/01 04:58:44;;;;;;;1.20;1.00;;;6.20;98.00;;;;;;5112524;28;20514;-69
2021/10/01 05:01:11;;;;;;;1.20;1.00;;;6.10;98.00;;;;;;5094439;28;20497;-69
2021/10/01 05:03:38;;;;;;;1.20;1.00;;;6.00;98.00;;;;;;5112530;28;20458;-69
2021/10/01 05:06:05;;;;;;;1.20;1.00;;;6.10;98.00;;;;;;5112465;28;20535;-70
2021/10/01 05:08:32;;;;;;;1.20;1.03;;;6.10;98.00;;;;;;5112220;28;20815;-70
2021/10/01 05:11:00;;;;;;;1.20;1.00;;;6.10;98.00;;;;;;5112439;28;20482;-70
2021/10/01 05:13:28;;;;;;;1.20;1.00;;;6.00;98.00;;;;;;5112226;28;20454;-70
2021/10/01 05:15:55;;;;;;;1.20;1.00;;;6.00;98.00;;;;;;5112304;28;20533;-71
2021/10/01 05:18:25;;;;;;;1.30;1.17;;;5.90;98.00;;;;;;5112017;28;20451;-70
2021/10/01 05:20:52;;;;;;;1.20;1.03;;;6.00;98.00;;;;;;5111766;28;20458;-70
2021/10/01 05:23:19;;;;;;;1.20;1.00;;;6.10;98.00;;;;;;5112013;28;20459;-69
2021/10/01 05:25:46;;;;;;;1.20;1.00;;;6.10;98.00;;;;;;5112313;28;20452;-71
2021/10/01 05:28:14;;;;;;;1.30;1.20;;;6.00;98.00;;;;;;5112203;28;20462;-70
2021/10/01 05:30:42;;;;;;;1.20;0.90;;;6.00;98.00;;;;;;5112448;28;20475;-69
2021/10/01 05:33:11;;;;;;;1.20;1.00;;;6.00;98.00;;;;;;5110981;28;20520;-69
2021/10/01 05:35:41;;;;;;;1.67;1.43;;;5.90;98.00;;;;;;5112156;28;20455;-69
2021/10/01 05:38:08;;;;;;;1.30;1.20;;;6.00;98.00;;;;;;5111675;28;20510;-70
2021/10/01 05:40:35;;;;;;;1.20;0.90;;;6.10;98.00;;;;;;5112153;28;20869;-69
2021/10/01 05:43:02;;;;;;;1.87;1.20;;;6.10;98.00;;;;;;5112234;28;20464;-70
2021/10/01 05:45:31;;;;;;;1.40;1.10;;;6.10;98.00;;;;;;5111994;28;20930;-69
2021/10/01 05:47:59;;;;;;;1.20;0.90;;;6.20;98.00;;;;;;5112140;28;20495;-70
2021/10/01 05:50:29;;;;;;;1.30;1.10;;;6.10;98.00;;;;;;5111929;28;20573;-70
2021/10/01 05:52:59;;;;;;;1.50;1.10;;;6.20;98.00;;;;;;5111997;28;20495;-71
2021/10/01 05:55:26;;;;;;;1.20;1.00;;;6.10;98.00;;;;;;5112219;28;20805;-71
2021/10/01 05:57:54;;;;;;;1.20;1.00;;;6.10;98.00;;;;;;5112115;28;20484;-70
2021/10/01 06:00:22;;;;;;;1.20;1.00;;;6.10;98.00;;;;;;5111946;28;20995;-71
2021/10/01 06:02:52;;;;;;;1.20;1.10;;;6.20;98.00;;;;;;5112347;28;20501;-70
2021/10/01 06:05:19;;;;;;;1.97;1.43;;;6.10;98.00;;;;;;5114430;28;20491;-71
2021/10/01 06:07:48;;;;;;;1.30;1.03;;;6.10;98.00;;;;;;5115916;28;20511;-72
2021/10/01 06:10:15;;;;;;;1.30;1.17;;;6.10;98.00;;;;;;5115352;28;20511;-72
2021/10/01 06:12:42;;;;;;;1.50;1.40;;;6.10;98.00;;;;;;5115826;28;20516;-70
2021/10/01 06:15:10;;;;;;;1.20;1.10;;;6.20;98.00;;;;;;5115761;28;20452;-72
2021/10/01 06:17:37;;;;;;;1.20;1.00;;;6.30;98.00;;;;;;5115889;28;20550;-72
2021/10/01 06:20:09;;;;;;;1.40;1.10;;;6.50;98.00;;;;;;5115481;28;20517;-70
2021/10/01 06:22:38;;;;;;;1.20;1.00;;;6.50;98.00;;;;;;5115548;28;20452;-70
2021/10/01 06:25:06;;;;;;;1.70;1.10;;;6.60;98.00;;;;;;5115752;28;20463;-72
2021/10/01 06:27:34;;;;;;;1.30;1.30;;;6.70;98.00;;;;;;5114331;28;20521;-70
2021/10/01 06:30:02;;;;;;;2.43;1.77;;;6.70;98.00;;;;;;5115287;28;20456;-70
2021/10/01 06:32:34;;;;;;;5.13;1.10;;;6.60;98.00;;;;;;5114274;28;20810;-71
2021/10/01 06:35:04;;;;;;;1.20;1.00;;;6.60;98.00;;;;;;5115331;28;20540;-72
2021/10/01 06:37:32;;;;;;;1.30;1.10;;;6.60;98.00;;;;;;5115349;28;20465;-70
2021/10/01 06:39:59;;;;;;;1.20;1.00;;;6.70;98.00;;;;;;5115183;28;20487;-71
2021/10/01 06:42:26;;;;;;;1.23;1.03;;;6.70;98.00;;;;;;5115317;28;20498;-71
2021/10/01 06:44:55;;;;;;;1.30;1.10;;;6.90;98.00;;;;;;5115141;28;20481;-70
2021/10/01 06:47:26;;;;;;;1.83;1.43;;;7.00;98.00;;;;;;5115227;28;20453;-72
2021/10/01 06:50:07;;;;;;;1.20;1.10;;;7.10;98.00;;;;;;5115030;28;20474;-70
2021/10/01 06:53:11;;;;;;;1.20;1.10;;;7.30;98.00;;;;;;5115057;28;20455;-72
2021/10/01 08:18:27;;;;;;;1.43;1.27;;;10.70;98.00;;;;;;5101749;28;20535;-71
2021/10/01 08:20:54;;;;;;;1.40;1.10;;;10.80;98.00;;;;;;5096346;28;20463;-71
2021/10/01 08:23:21;;;;;;;1.40;1.10;;;10.80;98.00;;;;;;5100675;28;20459;-70
2021/10/01 08:25:48;;;;;;;1.20;1.00;;;10.90;98.00;;;;;;5093598;28;20857;-71
2021/10/01 08:28:15;;;;;;;1.20;1.10;;;11.00;98.00;;;;;;5088090;28;20522;-70
2021/10/01 08:30:44;;;;;;;1.20;1.03;;;11.00;98.00;;;;;;5104456;28;20491;-71
2021/10/01 08:33:11;;;;;;;1.37;1.20;;;11.10;98.00;;;;;;5105991;28;20529;-71
2021/10/01 08:35:38;;;;;;;1.40;1.20;;;11.30;98.00;;;;;;5091127;28;20506;-69
2021/10/01 08:38:05;;;;;;;1.30;1.20;;;11.50;98.00;;;;;;5100817;28;20467;-69
2021/10/01 08:40:32;;;;;;;1.53;1.43;;;11.70;98.00;;;;;;5102897;28;20497;-70
2021/10/01 08:43:00;;;;;;;1.20;1.10;;;12.00;98.00;;;;;;5097516;28;20487;-70
2021/10/01 08:45:28;;;;;;;1.50;1.27;;;12.20;98.00;;;;;;5091844;28;20493;-71
2021/10/01 08:47:58;;;;;;;3.10;1.60;;;12.40;98.00;;;;;;5103491;28;20512;-71
2021/10/01 08:50:26;;;;;;;3.00;1.80;;;12.60;98.00;;;;;;5101081;28;20598;-71
2021/10/01 08:52:56;;;;;;;1.30;1.10;;;12.80;98.00;;;;;;5093883;28;20894;-72
2021/10/01 08:55:23;;;;;;;1.30;1.30;;;13.10;98.00;;;;;;5105589;28;20589;-73
2021/10/01 08:57:50;;;;;;;2.30;1.23;;;13.30;98.00;;;;;;5092453;28;20519;-72
2021/10/01 09:00:21;;;;;;;1.50;1.23;;;13.50;98.00;;;;;;5102155;28;20468;-72
2021/10/01 09:02:48;;;;;;;1.20;1.10;;;13.80;98.00;;;;;;5095385;28;21024;-71
2021/10/01 09:05:17;;;;;;;1.50;1.30;;;14.00;98.00;;;;;;5100534;28;20825;-71
2021/10/01 09:07:44;;;;;;;1.87;1.40;;;14.20;98.00;;;;;;5099516;28;20516;-71
2021/10/01 09:10:13;;;;;;;3.00;1.80;;;14.40;98.00;;;;;;5102860;28;20455;-72
2021/10/01 09:12:41;;;;;;;1.20;1.10;;;14.60;98.00;;;;;;5095632;28;20534;-71
2021/10/01 09:15:09;;;;;;;1.60;1.33;;;14.70;98.00;;;;;;5090675;28;20544;-70
2021/10/01 09:17:36;;;;;;;2.03;1.70;;;14.80;98.00;;;;;;5094248;28;20464;-70
2021/10/01 09:20:06;;;;;;;1.30;1.20;;;15.00;98.00;;;;;;5104350;28;20517;-72
2021/10/01 09:22:38;;;;;;;1.20;1.10;;;15.10;98.00;;;;;;5099322;28;20503;-71
2021/10/01 09:25:12;;;;;;;1.20;1.10;;;15.40;98.00;;;;;;5091381;28;20514;-72
2021/10/01 09:27:45;;;;;;;1.40;1.20;;;15.50;98.00;;;;;;5086509;28;20826;-71
2021/10/01 09:30:13;;;;;;;1.60;1.33;;;15.80;98.00;;;;;;5091338;28;20487;-71
2021/10/01 09:32:41;;;;;;;1.70;1.50;;;16.00;98.00;;;;;;5091838;28;20486;-72
2021/10/01 09:35:15;;;;;;;1.20;1.20;;;16.20;98.00;;;;;;5091774;28;20464;-71
2021/10/01 09:37:44;;;;;;;1.53;1.10;;;16.50;98.00;;;;;;5091777;28;21009;-72
2021/10/01 09:40:12;;;;;;;1.50;1.40;;;16.80;98.00;;;;;;5091071;28;20454;-71
2021/10/01 09:42:43;;;;;;;1.80;1.30;;;17.00;98.00;;;;;;5091837;28;20961;-70
2021/10/01 09:45:12;;;;;;;1.30;1.10;;;17.20;98.00;;;;;;5091639;28;20457;-70
2021/10/01 09:47:43;;;;;;;1.80;1.40;;;17.30;98.00;;;;;;5090547;28;20471;-72
2021/10/01 09:50:14;;;;;;;1.20;1.13;;;17.50;98.00;;;;;;5091711;28;20531;-71
2021/10/01 09:52:46;;;;;;;1.50;1.30;;;17.50;98.00;;;;;;5091559;28;20479;-72
2021/10/01 09:55:15;;;;;;;1.90;1.40;;;17.80;98.00;;;;;;5091530;28;20458;-73
2021/10/01 09:58:00;;;;;;;1.20;1.03;;;17.90;98.00;;;;;;5091760;28;20484;-72
2021/10/01 10:00:34;;;;;;;1.60;1.60;;;18.10;98.00;;;;;;5091524;28;20501;-73
2021/10/01 10:03:01;;;;;;;1.40;1.20;;;18.40;98.00;;;;;;5091745;28;20476;-71
2021/10/01 10:05:56;;;;;;;1.67;1.40;;;18.60;96.90;;;;;;5091450;28;20494;-73
2021/10/01 10:08:27;;;;;;;1.50;1.37;;;18.70;96.60;;;;;;5091787;28;20811;-71
2021/10/01 10:10:56;;;;;;;1.30;1.30;;;18.90;95.80;;;;;;5091264;28;20515;-71
2021/10/01 10:13:43;;;;;;;1.30;1.30;;;18.90;96.40;;;;;;5091747;28;21016;-73
2021/10/01 10:16:12;;;;;;;1.30;1.17;;;19.10;94.90;;;;;;5091203;28;20513;-72
2021/10/01 10:18:40;;;;;;;2.30;1.20;;;19.30;94.40;;;;;;5091306;28;20840;-72
2021/10/01 10:21:08;;;;;;;1.37;1.33;;;19.60;94.40;;;;;;5090042;28;20447;-73
2021/10/01 10:23:43;;;;;;;1.40;1.20;;;19.80;96.00;;;;;;5093195;28;20517;-72
2021/10/01 10:26:10;;;;;;;2.10;1.37;;;20.10;93.40;;;;;;5090496;28;20866;-72
2021/10/01 10:28:40;;;;;;;1.20;1.20;;;20.20;92.30;;;;;;5091283;28;20460;-72
2021/10/01 10:31:08;;;;;;;1.37;1.17;;;20.30;91.00;;;;;;5091253;28;20488;-73
2021/10/01 10:33:40;;;;;;;1.30;1.20;;;20.50;91.70;;;;;;5091183;28;20491;-72
2021/10/01 10:36:28;;;;;;;1.50;1.30;;;20.70;91.60;;;;;;5091250;28;20537;-72
2021/10/01 10:38:57;;;;;;;1.27;1.20;;;21.00;91.60;;;;;;5090004;28;20462;-72
2021/10/01 10:41:25;;;;;;;1.40;1.33;;;21.20;91.10;;;;;;5091162;28;20459;-73
2021/10/01 10:43:52;;;;;;;1.40;1.30;;;21.40;88.20;;;;;;5089713;28;20473;-73
2021/10/01 10:46:41;;;;;;;1.83;1.43;;;21.50;88.90;;;;;;5091153;28;20460;-75
2021/10/01 10:49:21;;;;;;;1.30;1.20;;;21.60;89.20;;;;;;5086419;28;20531;-74
2021/10/01 10:52:06;;;;;;;1.80;1.60;;;21.80;86.90;;;;;;5093948;28;20483;-73
2021/10/01 10:54:36;;;;;;;1.60;1.20;;;21.80;84.70;;;;;;5094288;28;20462;-73
2021/10/01 10:57:28;;;;;;;1.80;1.60;;;22.00;85.70;;;;;;5094833;28;20525;-73
2021/10/01 10:59:58;;;;;;;1.50;1.30;;;22.20;84.70;;;;;;5085766;28;20460;-73
2021/10/01 11:02:28;;;;;;;1.23;1.10;;;22.40;80.50;;;;;;5094269;28;20480;-74
2021/10/01 11:05:28;;;;;;;1.40;1.20;;;22.50;79.60;;;;;;5094540;28;20542;-75
2021/10/01 11:07:57;;;;;;;1.20;1.20;;;22.60;78.00;;;;;;5094644;28;20452;-76
2021/10/01 11:10:37;;;;;;;1.30;1.17;;;22.90;77.00;;;;;;5094050;28;20460;-75
2021/10/01 11:13:26;;;;;;;1.30;1.30;;;23.20;74.50;;;;;;5094103;28;20522;-75
2021/10/01 11:16:16;;;;;;;1.77;1.37;;;23.50;73.60;;;;;;5094275;28;20448;-76
2021/10/01 11:18:58;;;;;;;1.47;1.33;;;23.70;72.90;;;;;;5094208;28;20452;-76
2021/10/01 11:21:42;;;;;;;1.20;1.20;;;23.90;72.30;;;;;;5092319;28;20608;-76
2021/10/01 11:24:11;;;;;;;2.13;1.40;;;23.90;71.40;;;;;;5092680;28;20463;-76
2021/10/01 11:26:41;;;;;;;1.40;1.40;;;23.70;69.40;;;;;;5094125;28;20487;-75
2021/10/01 11:29:22;;;;;;;1.47;1.20;;;23.80;71.70;;;;;;5093983;28;20497;-75
2021/10/01 11:31:51;;;;;;;1.60;1.40;;;23.60;69.80;;;;;;5093719;28;21074;-75
2021/10/01 11:34:18;;;;;;;1.20;1.20;;;23.50;69.30;;;;;;5093777;28;20963;-75
2021/10/01 11:36:45;;;;;;;1.20;1.20;;;23.40;70.90;;;;;;5093643;28;20494;-74
2021/10/01 11:39:22;;;;;;;1.43;1.37;;;23.30;69.00;;;;;;5093694;28;20501;-75
2021/10/01 11:41:50;;;;;;;1.20;1.10;;;23.40;71.40;;;;;;5092750;28;20482;-76
2021/10/01 11:44:19;;;;;;;2.60;1.40;;;23.30;70.80;;;;;;5093732;28;20500;-74
2021/10/01 11:46:49;;;;;;;1.30;1.20;;;23.30;73.10;;;;;;5093699;28;20483;-74
2021/10/01 11:49:18;;;;;;;1.20;1.20;;;23.30;71.50;;;;;;5093674;28;20844;-75
2021/10/01 11:51:59;;;;;;;1.20;1.10;;;23.40;73.60;;;;;;5092443;28;21213;-75
2021/10/01 11:54:26;;;;;;;1.43;1.23;;;23.30;74.50;;;;;;5093443;28;20455;-75
2021/10/01 11:56:59;;;;;;;1.40;1.20;;;23.40;73.80;;;;;;5093506;28;21165;-74
2021/10/01 11:59:49;;;;;;;1.53;1.20;;;23.10;73.00;;;;;;5093495;28;20460;-76
2021/10/01 12:02:27;;;;;;;1.30;1.20;;;23.10;73.80;;;;;;5093010;28;20460;-76
2021/10/01 12:04:54;;;;;;;1.30;1.10;;;23.10;75.50;;;;;;5093340;28;20491;-75
2021/10/01 12:07:21;;;;;;;1.30;1.20;;;23.00;75.30;;;;;;5093500;28;20448;-76
2021/10/01 12:10:02;;;;;;;1.30;1.30;;;23.10;75.70;;;;;;5093368;28;20544;-75
2021/10/01 12:12:32;;;;;;;1.60;1.10;;;22.80;74.90;;;;;;5091912;28;20494;-74
2021/10/01 12:14:59;;;;;;;1.50;1.30;;;22.70;76.00;;;;;;5093541;28;20456;-76
2021/10/01 12:17:26;;;;;;;1.30;1.20;;;22.60;77.20;;;;;;5093145;28;20463;-75
2021/10/01 12:20:02;;;;;;;1.30;1.20;;;22.60;80.30;;;;;;5092830;28;20546;-75
2021/10/01 12:22:32;;;;;;;1.93;1.37;;;22.70;77.60;;;;;;5093223;28;20432;-76
2021/10/01 12:24:59;;;;;;;1.40;1.30;;;22.70;77.30;;;;;;5092810;28;20444;-77
2021/10/01 12:27:40;;;;;;;1.30;1.20;;;22.50;77.80;;;;;;5092961;28;20509;-78
2021/10/01 12:30:08;;;;;;;1.50;1.27;;;22.50;77.50;;;;;;5092744;28;20544;-75
2021/10/01 12:32:36;;;;;;;1.20;1.20;;;22.60;78.50;;;;;;5092916;28;20483;-76
2021/10/01 12:35:06;;;;;;;1.90;1.37;;;22.60;77.40;;;;;;5092963;28;20525;-76
2021/10/01 12:37:40;;;;;;;2.47;1.43;;;22.50;77.40;;;;;;5093190;28;20444;-76
2021/10/01 12:40:10;;;;;;;1.20;1.20;;;22.70;77.40;;;;;;5093061;28;20621;-76
2021/10/01 12:42:40;;;;;;;1.70;1.30;;;22.90;77.90;;;;;;5093475;28;20482;-77
2021/10/01 12:45:11;;;;;;;1.20;1.20;;;23.00;77.00;;;;;;5093334;28;20456;-77
2021/10/01 12:47:41;;;;;;;1.93;1.43;;;23.30;78.20;;;;;;5094386;28;20534;-79
2021/10/01 12:50:10;;;;;;;1.30;1.20;;;23.50;77.10;;;;;;5093852;28;20459;-77
2021/10/01 12:52:38;;;;;;;1.60;1.20;;;23.70;76.60;;;;;;5092861;28;20484;-78
2021/10/01 12:55:07;;;;;;;1.63;1.30;;;23.80;76.90;;;;;;5092787;28;20499;-76
2021/10/01 12:57:38;;;;;;;2.07;1.60;;;23.90;75.30;;;;;;5092328;28;20448;-76
2021/10/01 13:00:14;;;;;;;1.77;1.37;;;23.70;76.70;;;;;;5092273;28;20494;-75
2021/10/01 13:02:43;;;;;;;1.43;1.40;;;23.80;75.70;;;;;;5092936;28;20889;-77
2021/10/01 13:05:14;;;;;;;1.30;1.23;;;24.00;76.20;;;;;;5093161;28;20962;-77
2021/10/01 13:07:42;;;;;;;2.00;1.37;;;24.20;76.00;;;;;;5093620;28;21015;-77
2021/10/01 13:10:25;;;;;;;1.40;1.33;;;24.40;75.70;;;;;;5092833;28;20513;-78
2021/10/01 13:13:01;;;;;;;1.40;1.40;;;24.60;74.80;;;;;;5092933;28;20533;-77
2021/10/01 13:15:44;;;;;;;1.73;1.40;;;24.90;73.90;;;;;;5091844;28;20456;-78
2021/10/01 13:18:32;;;;;;;4.00;1.63;;;25.10;71.70;;;;;;5093525;28;20455;-77
2021/10/01 13:21:10;;;;;;;1.30;1.30;;;25.30;71.70;;;;;;5087055;28;20983;-75
2021/10/01 13:23:39;;;;;;;1.50;1.30;;;25.10;73.50;;;;;;5091962;28;20542;-76
2021/10/01 13:26:12;;;;;;;1.43;1.30;;;25.30;76.20;;;;;;5091954;28;20550;-76
2021/10/01 13:28:42;;;;;;;1.70;1.40;;;25.40;76.60;;;;;;5091546;28;20488;-75
2021/10/01 13:31:10;;;;;;;1.30;1.20;;;25.70;73.30;;;;;;5091355;28;20833;-72
2021/10/01 13:33:37;;;;;;;1.50;1.40;;;25.90;75.10;;;;;;5091490;28;21005;-75
2021/10/01 13:36:05;;;;;;;1.63;1.50;;;26.10;73.30;;;;;;5091712;28;20520;-75
2021/10/01 13:38:34;;;;;;;1.63;1.60;;;26.50;73.60;;;;;;5091703;28;21018;-75
2021/10/01 13:41:08;;;;;;;1.90;1.50;;;26.70;70.90;;;;;;5090141;28;20934;-75
2021/10/01 13:43:38;;;;;;;2.23;1.40;;;26.70;69.90;;;;;;5091759;28;20584;-75
2021/10/01 13:46:09;;;;;;;2.27;1.60;;;26.70;70.40;;;;;;5091839;28;20452;-75
2021/10/01 13:48:36;;;;;;;2.30;1.80;;;26.60;69.90;;;;;;5091910;28;20536;-76
2021/10/01 13:51:04;;;;;;;1.70;1.40;;;26.70;71.50;;;;;;5091478;28;20819;-74
2021/10/01 13:53:31;;;;;;;2.63;1.60;;;26.80;73.10;;;;;;5091655;28;20572;-74
2021/10/01 13:55:58;;;;;;;4.30;1.67;;;26.80;70.00;;;;;;5091491;28;20463;-75
2021/10/01 13:58:26;;;;;;;1.80;1.40;;;26.80;71.10;;;;;;5091760;28;20460;-73
2021/10/01 14:00:54;;;;;;;1.57;1.30;;;26.60;71.60;;;;;;5091650;28;20498;-74
2021/10/01 14:03:23;;;;;;;1.40;1.40;;;26.70;70.80;;;;;;5091920;28;20478;-76
2021/10/01 14:05:51;;;;;;;1.70;1.70;;;26.70;71.00;;;;;;5091855;28;20509;-74
2021/10/01 14:08:18;;;;;;;1.50;1.40;;;26.80;71.70;;;;;;5091834;28;20476;-75
2021/10/01 14:10:46;;;;;;;1.37;1.33;;;27.00;72.90;;;;;;5091900;28;20460;-76
2021/10/01 14:13:15;;;;;;;1.93;1.40;;;27.10;70.20;;;;;;5092389;28;20516;-77
2021/10/01 14:15:48;;;;;;;1.37;1.30;;;27.20;72.20;;;;;;5091933;28;20882;-75
2021/10/01 14:18:16;;;;;;;2.10;1.77;;;27.40;71.80;;;;;;5091577;28;21007;-76
2021/10/01 14:20:45;;;;;;;2.37;2.00;;;27.50;70.70;;;;;;5091377;28;20455;-76
2021/10/01 14:23:13;;;;;;;1.40;1.40;;;27.70;70.30;;;;;;5091622;28;20505;-76
2021/10/01 14:25:41;;;;;;;1.97;1.60;;;27.70;70.00;;;;;;5092725;28;20521;-73
2021/10/01 14:28:08;;;;;;;2.67;1.60;;;27.80;69.00;;;;;;5095386;28;20462;-73
2021/10/01 14:30:37;;;;;;;1.57;1.50;;;27.80;70.30;;;;;;5095187;28;20521;-74
2021/10/01 14:33:07;;;;;;;2.50;1.60;;;28.00;68.80;;;;;;5095379;28;20536;-73
2021/10/01 14:35:35;;;;;;;3.43;1.60;;;28.30;69.20;;;;;;5095091;28;20455;-73